createdAt,value
2023-03-16T00:00:10.100Z,-2
2023-03-16T00:05:10.116Z,-2
2023-03-16T00:10:10.104Z,-2.1
2023-03-16T00:15:10.114Z,-1.9
2023-03-16T00:20:10.119Z,-2
2023-03-16T00:25:10.110Z,-2
2023-03-16T00:30:10.114Z,-2.1
2023-03-16T00:35:10.108Z,-2.1
2023-03-16T00:40:10.103Z,-2.1
2023-03-16T00:45:10.099Z,-2.1
2023-03-16T00:50:10.102Z,-2
2023-03-16T00:55:10.107Z,-1.9
2023-03-16T01:00:10.116Z,-1.9
2023-03-16T01:05:10.090Z,-2
2023-03-16T01:10:10.115Z,-2.1
2023-03-16T01:15:10.098Z,-2.1
2023-03-16T01:20:10.115Z,-2.2
2023-03-16T01:25:10.096Z,-2.2
2023-03-16T01:30:10.094Z,-2.3
2023-03-16T01:35:10.114Z,-2.4
2023-03-16T01:40:10.091Z,-2.4
2023-03-16T01:45:10.100Z,-2.2
2023-03-16T01:50:10.106Z,-2.3
2023-03-16T01:55:10.118Z,-2.3
2023-03-16T02:00:10.106Z,-2.4
2023-03-16T02:05:10.112Z,-2.5
2023-03-16T02:10:10.095Z,-2.6
2023-03-16T02:15:10.104Z,-2.7
2023-03-16T02:20:10.096Z,-2.7
2023-03-16T02:25:10.091Z,-2.7
2023-03-16T02:30:10.126Z,-2.7
2023-03-16T02:35:10.100Z,-2.9
2023-03-16T02:40:10.114Z,-2.8
2023-03-16T02:45:10.110Z,-2.9
2023-03-16T02:50:10.100Z,-2.9
2023-03-16T02:55:10.101Z,-2.8
2023-03-16T03:00:10.093Z,-2.9
2023-03-16T03:05:10.098Z,-2.8
2023-03-16T03:10:10.095Z,-2.8
2023-03-16T03:15:10.099Z,-3
2023-03-16T03:20:10.089Z,-3
2023-03-16T03:25:10.095Z,-3
2023-03-16T03:30:10.092Z,-3.1
2023-03-16T03:35:10.126Z,-3
2023-03-16T03:40:10.097Z,-2.9
2023-03-16T03:45:10.098Z,-2.9
2023-03-16T03:50:10.095Z,-2.8
2023-03-16T03:55:10.113Z,-2.8
2023-03-16T04:00:10.097Z,-2.8
2023-03-16T04:05:10.097Z,-2.7
2023-03-16T04:10:10.105Z,-2.7
2023-03-16T04:15:10.097Z,-2.6
2023-03-16T04:20:10.093Z,-2.8
2023-03-16T04:25:11.468Z,-2.8
2023-03-16T04:30:10.095Z,-2.9
2023-03-16T04:35:10.112Z,-2.9
2023-03-16T04:40:10.979Z,-2.9
2023-03-16T04:45:10.113Z,-3
2023-03-16T04:50:10.099Z,-3
2023-03-16T04:55:10.103Z,-2.9
2023-03-16T05:00:10.089Z,-2.9
2023-03-16T05:05:10.202Z,-2.9
2023-03-16T05:10:10.091Z,-3
2023-03-16T05:15:10.102Z,-3
2023-03-16T05:20:10.097Z,-3.2
2023-03-16T05:25:10.099Z,-3.4
2023-03-16T05:30:10.096Z,-3.5
2023-03-16T05:35:10.104Z,-3.6
2023-03-16T05:40:10.099Z,-3.7
2023-03-16T05:45:10.103Z,-3.8
2023-03-16T05:50:10.102Z,-3.9
2023-03-16T05:55:10.101Z,-3.9
2023-03-16T06:00:10.100Z,-3.9
2023-03-16T06:05:10.096Z,-3.9
2023-03-16T06:10:10.108Z,-3.9
2023-03-16T06:15:10.096Z,-3.8
2023-03-16T06:20:10.104Z,-3.8
2023-03-16T06:25:10.169Z,-3.6
2023-03-16T06:30:10.107Z,-3.5
2023-03-16T06:35:10.118Z,-3.5
2023-03-16T06:40:10.100Z,-3.4
2023-03-16T06:45:10.096Z,-3.3
2023-03-16T06:50:10.103Z,-3.2
2023-03-16T06:55:10.106Z,-3.3
2023-03-16T07:00:10.102Z,-3.2
2023-03-16T07:05:10.112Z,-3.2
2023-03-16T07:10:10.112Z,-3.1
2023-03-16T07:15:10.101Z,-3
2023-03-16T07:20:10.099Z,-2.9
2023-03-16T07:25:10.102Z,-2.7
2023-03-16T07:30:10.098Z,-2.7
2023-03-16T07:35:10.098Z,-2.7
2023-03-16T07:40:10.095Z,-2.6
2023-03-16T07:45:10.106Z,-2.4
2023-03-16T07:50:10.141Z,-2.3
2023-03-16T07:55:10.115Z,-2.2
2023-03-16T08:00:10.092Z,-1.9
2023-03-16T08:05:10.152Z,-1.9
2023-03-16T08:10:10.099Z,-1.9
2023-03-16T08:15:10.173Z,-1.9
2023-03-16T08:20:10.118Z,-1.5
2023-03-16T08:25:10.121Z,-1.4
2023-03-16T08:30:10.095Z,-1.2
2023-03-16T08:35:10.173Z,-1
2023-03-16T08:40:10.105Z,-0.8
2023-03-16T08:45:12.435Z,-0.6
2023-03-16T08:50:10.113Z,-0.4
2023-03-16T08:55:10.115Z,0.1
2023-03-16T09:00:10.100Z,0.5
2023-03-16T09:05:10.113Z,0.7
2023-03-16T09:10:10.109Z,0.8
2023-03-16T09:15:10.138Z,0.9
2023-03-16T09:20:21.716Z,1.3
2023-03-16T09:25:10.116Z,1.5
2023-03-16T09:30:10.100Z,1.8
2023-03-16T09:35:10.140Z,2
2023-03-16T09:40:11.955Z,2.5
2023-03-16T09:45:10.142Z,2.7
2023-03-16T09:50:10.164Z,2.8
2023-03-16T09:55:10.106Z,3.3
2023-03-16T10:00:10.101Z,3.6
2023-03-16T10:05:10.100Z,3.9
2023-03-16T10:10:10.123Z,4.2
2023-03-16T10:15:10.279Z,4.8
2023-03-16T10:20:10.113Z,5.2
2023-03-16T10:25:10.102Z,5.2
2023-03-16T10:30:10.093Z,5.1
2023-03-16T10:35:10.109Z,5.2
2023-03-16T10:40:10.103Z,5.3
2023-03-16T10:45:10.097Z,5.8
2023-03-16T10:50:10.096Z,5.6
2023-03-16T10:55:10.120Z,5.5
2023-03-16T11:00:10.118Z,5.6
2023-03-16T11:05:10.109Z,6
2023-03-16T11:10:10.106Z,5.9
2023-03-16T11:15:20.051Z,5.8
2023-03-16T11:20:10.101Z,6.1
2023-03-16T11:25:10.116Z,6.6
2023-03-16T11:30:10.108Z,6.5
2023-03-16T11:35:10.118Z,6.5
2023-03-16T11:40:10.108Z,7
2023-03-16T11:45:10.119Z,7.5
2023-03-16T11:50:10.106Z,7.6
2023-03-16T11:55:10.136Z,7.3
2023-03-16T12:00:10.108Z,6.9
2023-03-16T12:05:10.110Z,7.3
2023-03-16T12:10:10.095Z,7.3
2023-03-16T12:15:10.108Z,7.6
2023-03-16T12:20:10.099Z,7.7
2023-03-16T12:25:10.104Z,7.9
2023-03-16T12:30:10.115Z,7.8
2023-03-16T12:35:10.906Z,7.6
2023-03-16T12:40:10.120Z,7.7
2023-03-16T12:45:10.099Z,8.2
2023-03-16T12:50:10.098Z,8.4
2023-03-16T12:55:10.094Z,8.3
2023-03-16T13:00:10.131Z,8
2023-03-16T13:05:10.097Z,8.2
2023-03-16T13:10:10.108Z,8.1
2023-03-16T13:15:10.101Z,8.4
2023-03-16T13:20:10.373Z,8.2
2023-03-16T13:25:10.105Z,8.6
2023-03-16T13:30:10.164Z,8.6
2023-03-16T13:35:10.114Z,8.8
2023-03-16T13:40:10.211Z,8.5
2023-03-16T13:45:10.110Z,8.2
2023-03-16T13:50:10.139Z,8.6
2023-03-16T13:55:10.119Z,8.5
2023-03-16T14:00:10.154Z,8.4
2023-03-16T14:05:10.105Z,8.9
2023-03-16T14:10:10.103Z,9.1
2023-03-16T14:15:10.113Z,9.1
2023-03-16T14:20:10.111Z,9.1
2023-03-16T14:25:10.104Z,8.9
2023-03-16T14:30:10.126Z,9.1
2023-03-16T14:35:10.116Z,9
2023-03-16T14:40:10.107Z,8.7
2023-03-16T14:45:10.102Z,8.6
2023-03-16T14:50:10.098Z,8.5
2023-03-16T14:55:10.120Z,8.7
2023-03-16T15:00:10.289Z,8.8
2023-03-16T15:05:10.102Z,9
2023-03-16T15:10:10.104Z,9
2023-03-16T15:15:10.115Z,9.1
2023-03-16T15:20:10.104Z,9.3
2023-03-16T15:25:10.110Z,9
2023-03-16T15:30:10.101Z,9
2023-03-16T15:35:10.102Z,9
2023-03-16T15:40:10.108Z,8.9
2023-03-16T15:45:10.110Z,8.8
2023-03-16T15:50:10.107Z,8.6
2023-03-16T15:55:10.102Z,8.4
2023-03-16T16:00:10.093Z,8.4
2023-03-16T16:05:10.098Z,8.2
2023-03-16T16:10:10.090Z,8.1
2023-03-16T16:15:10.101Z,8
2023-03-16T16:20:10.093Z,8
2023-03-16T16:25:10.107Z,7.8
2023-03-16T16:30:10.096Z,7.7
2023-03-16T16:35:10.102Z,7.6
2023-03-16T16:40:10.097Z,7.5
2023-03-16T16:45:10.140Z,7.4
2023-03-16T16:50:10.104Z,7.2
2023-03-16T16:55:10.105Z,7.1
2023-03-16T17:00:10.095Z,7
2023-03-16T17:05:10.095Z,6.9
2023-03-16T17:10:10.098Z,6.7
2023-03-16T17:15:10.096Z,6.7
2023-03-16T17:20:10.097Z,6.6
2023-03-16T17:25:10.098Z,6.5
2023-03-16T17:30:10.112Z,6.5
2023-03-16T17:35:10.105Z,6.5
2023-03-16T17:40:10.104Z,6.3
2023-03-16T17:45:10.102Z,6.1
2023-03-16T17:50:10.107Z,6
2023-03-16T17:55:10.109Z,5.9
2023-03-16T18:00:10.092Z,5.7
2023-03-16T18:05:10.107Z,5.6
2023-03-16T18:10:10.101Z,5.5
2023-03-16T18:15:10.096Z,5.3
2023-03-16T18:20:10.101Z,5.1
2023-03-16T18:25:10.098Z,5.1
2023-03-16T18:30:10.102Z,4.9
2023-03-16T18:35:10.112Z,4.8
2023-03-16T18:40:10.113Z,4.7
2023-03-16T18:45:10.113Z,4.6
2023-03-16T18:50:10.109Z,4.5
2023-03-16T18:55:10.106Z,4.3
2023-03-16T19:00:10.100Z,4.1
2023-03-16T19:05:10.107Z,3.9
2023-03-16T19:10:10.101Z,3.8
2023-03-16T19:15:10.095Z,3.9
2023-03-16T19:20:10.093Z,4.1
2023-03-16T19:25:10.092Z,4
2023-03-16T19:30:10.113Z,4
2023-03-16T19:35:10.096Z,3.7
2023-03-16T19:40:10.102Z,3.5
2023-03-16T19:45:10.102Z,3.3
2023-03-16T19:50:10.107Z,3.3
2023-03-16T19:55:10.108Z,3.2
2023-03-16T20:00:10.110Z,3.1
2023-03-16T20:10:10.236Z,2.9
2023-03-16T20:15:10.112Z,2.9
2023-03-16T20:20:10.105Z,2.9
2023-03-16T20:25:10.107Z,2.9
2023-03-16T20:30:10.101Z,2.8
2023-03-16T20:35:10.103Z,2.7
2023-03-16T20:40:10.093Z,2.6
2023-03-16T20:45:11.851Z,2.6
2023-03-16T20:50:10.098Z,2.4
2023-03-16T20:55:10.111Z,2.3
2023-03-16T21:00:10.093Z,2.3
2023-03-16T21:05:10.158Z,2.1
2023-03-16T21:10:10.099Z,2.1
2023-03-16T21:15:10.097Z,2
2023-03-16T21:20:10.096Z,2
2023-03-16T21:25:10.107Z,2
2023-03-16T21:30:10.094Z,2
2023-03-16T21:35:10.101Z,1.9
2023-03-16T21:40:10.096Z,1.9
2023-03-16T21:45:10.110Z,2
2023-03-16T21:50:10.097Z,2
2023-03-16T21:55:11.107Z,1.9
2023-03-16T22:00:10.090Z,1.9
2023-03-16T22:05:10.096Z,1.9
2023-03-16T22:10:10.099Z,2
2023-03-16T22:15:10.096Z,2.1
2023-03-16T22:20:10.100Z,2
2023-03-16T22:25:10.105Z,2
2023-03-16T22:30:10.101Z,1.9
2023-03-16T22:35:10.098Z,1.8
2023-03-16T22:40:10.105Z,1.9
2023-03-16T22:45:10.108Z,2
2023-03-16T22:50:10.107Z,1.9
2023-03-16T22:55:10.102Z,1.9
2023-03-16T23:00:10.098Z,1.8
2023-03-16T23:05:10.117Z,1.9
2023-03-16T23:10:10.100Z,2
2023-03-16T23:15:10.111Z,2
2023-03-16T23:20:10.107Z,1.9
2023-03-16T23:25:10.108Z,1.8
2023-03-16T23:30:10.107Z,1.9
2023-03-16T23:35:10.101Z,1.8
2023-03-16T23:40:10.105Z,1.8
2023-03-16T23:45:10.113Z,1.8
2023-03-16T23:50:10.106Z,1.8
2023-03-16T23:55:10.125Z,1.9
